sensor_id;sensor_type;location;lat;lon;timestamp;P1;durP1;ratioP1;P2;durP2;ratioP2
15655;SDS011;7928;43.614;1.456;2023-05-07T00:00:49;9.97;;;4.43;;
15655;SDS011;7928;43.614;1.456;2023-05-07T00:03:16;4.87;;;4.27;;
15655;SDS011;7928;43.614;1.456;2023-05-07T00:05:44;13.83;;;4.53;;
15655;SDS011;7928;43.614;1.456;2023-05-07T00:08:11;9.10;;;4.43;;
15655;SDS011;7928;43.614;1.456;2023-05-07T00:10:38;7.70;;;5.00;;
15655;SDS011;7928;43.614;1.456;2023-05-07T00:13:07;11.43;;;5.33;;
15655;SDS011;7928;43.614;1.456;2023-05-07T00:15:34;11.40;;;4.87;;
15655;SDS011;7928;43.614;1.456;2023-05-07T00:18:00;8.23;;;4.57;;
15655;SDS011;7928;43.614;1.456;2023-05-07T00:20:27;6.83;;;4.20;;
15655;SDS011;7928;43.614;1.456;2023-05-07T00:22:55;11.07;;;4.30;;
15655;SDS011;7928;43.614;1.456;2023-05-07T00:25:22;7.93;;;4.83;;
15655;SDS011;7928;43.614;1.456;2023-05-07T00:27:48;9.97;;;4.73;;
15655;SDS011;7928;43.614;1.456;2023-05-07T00:30:17;9.20;;;4.90;;
15655;SDS011;7928;43.614;1.456;2023-05-07T00:32:44;9.83;;;4.40;;
15655;SDS011;7928;43.614;1.456;2023-05-07T00:35:12;7.93;;;4.20;;
15655;SDS011;7928;43.614;1.456;2023-05-07T00:37:39;7.87;;;4.33;;
15655;SDS011;7928;43.614;1.456;2023-05-07T00:40:06;8.20;;;4.37;;
15655;SDS011;7928;43.614;1.456;2023-05-07T00:42:34;5.63;;;3.57;;
15655;SDS011;7928;43.614;1.456;2023-05-07T00:45:01;7.43;;;3.60;;
15655;SDS011;7928;43.614;1.456;2023-05-07T00:47:30;7.83;;;3.73;;
15655;SDS011;7928;43.614;1.456;2023-05-07T00:49:57;7.37;;;4.13;;
15655;SDS011;7928;43.614;1.456;2023-05-07T00:52:25;11.43;;;4.17;;
15655;SDS011;7928;43.614;1.456;2023-05-07T00:54:52;10.90;;;4.30;;
15655;SDS011;7928;43.614;1.456;2023-05-07T00:57:20;7.90;;;4.30;;
15655;SDS011;7928;43.614;1.456;2023-05-07T00:59:48;8.40;;;4.37;;
15655;SDS011;7928;43.614;1.456;2023-05-07T01:02:16;8.83;;;4.40;;
15655;SDS011;7928;43.614;1.456;2023-05-07T01:04:45;5.77;;;3.83;;
15655;SDS011;7928;43.614;1.456;2023-05-07T01:07:12;11.60;;;4.10;;
15655;SDS011;7928;43.614;1.456;2023-05-07T01:09:39;8.67;;;3.93;;
15655;SDS011;7928;43.614;1.456;2023-05-07T01:12:07;7.03;;;3.70;;
15655;SDS011;7928;43.614;1.456;2023-05-07T01:14:34;9.83;;;4.20;;
15655;SDS011;7928;43.614;1.456;2023-05-07T01:17:01;8.33;;;4.10;;
15655;SDS011;7928;43.614;1.456;2023-05-07T01:19:28;7.37;;;3.70;;
15655;SDS011;7928;43.614;1.456;2023-05-07T01:22:00;7.73;;;3.93;;
15655;SDS011;7928;43.614;1.456;2023-05-07T01:24:32;6.27;;;3.40;;
15655;SDS011;7928;43.614;1.456;2023-05-07T01:26:59;10.00;;;3.87;;
15655;SDS011;7928;43.614;1.456;2023-05-07T01:29:27;11.03;;;3.83;;
15655;SDS011;7928;43.614;1.456;2023-05-07T01:31:54;9.73;;;2.97;;
15655;SDS011;7928;43.614;1.456;2023-05-07T01:34:24;8.27;;;3.13;;
15655;SDS011;7928;43.614;1.456;2023-05-07T01:36:53;7.90;;;3.00;;
15655;SDS011;7928;43.614;1.456;2023-05-07T01:39:23;6.57;;;2.77;;
15655;SDS011;7928;43.614;1.456;2023-05-07T01:41:53;7.77;;;3.50;;
15655;SDS011;7928;43.614;1.456;2023-05-07T01:44:21;10.37;;;3.50;;
15655;SDS011;7928;43.614;1.456;2023-05-07T01:46:48;7.63;;;2.73;;
15655;SDS011;7928;43.614;1.456;2023-05-07T01:49:16;9.50;;;2.97;;
15655;SDS011;7928;43.614;1.456;2023-05-07T01:51:43;11.20;;;3.13;;
15655;SDS011;7928;43.614;1.456;2023-05-07T01:54:11;8.87;;;3.37;;
15655;SDS011;7928;43.614;1.456;2023-05-07T01:56:38;8.27;;;3.00;;
15655;SDS011;7928;43.614;1.456;2023-05-07T01:59:06;7.20;;;2.93;;
15655;SDS011;7928;43.614;1.456;2023-05-07T02:01:33;9.17;;;3.10;;
15655;SDS011;7928;43.614;1.456;2023-05-07T02:04:00;7.17;;;3.50;;
15655;SDS011;7928;43.614;1.456;2023-05-07T02:06:27;7.77;;;2.73;;
15655;SDS011;7928;43.614;1.456;2023-05-07T02:08:55;7.57;;;2.70;;
15655;SDS011;7928;43.614;1.456;2023-05-07T02:11:22;8.33;;;2.70;;
15655;SDS011;7928;43.614;1.456;2023-05-07T02:13:50;6.87;;;2.77;;
15655;SDS011;7928;43.614;1.456;2023-05-07T02:16:19;10.23;;;2.83;;
15655;SDS011;7928;43.614;1.456;2023-05-07T02:18:46;8.77;;;3.43;;
15655;SDS011;7928;43.614;1.456;2023-05-07T02:21:13;11.00;;;3.30;;
15655;SDS011;7928;43.614;1.456;2023-05-07T02:23:41;7.60;;;2.77;;
15655;SDS011;7928;43.614;1.456;2023-05-07T02:26:08;8.83;;;3.17;;
15655;SDS011;7928;43.614;1.456;2023-05-07T02:28:35;8.20;;;2.87;;
15655;SDS011;7928;43.614;1.456;2023-05-07T02:31:02;9.73;;;2.80;;
15655;SDS011;7928;43.614;1.456;2023-05-07T02:33:30;4.80;;;2.93;;
15655;SDS011;7928;43.614;1.456;2023-05-07T02:36:04;8.83;;;3.07;;
15655;SDS011;7928;43.614;1.456;2023-05-07T02:38:32;8.20;;;3.70;;
15655;SDS011;7928;43.614;1.456;2023-05-07T02:40:59;9.20;;;3.10;;
15655;SDS011;7928;43.614;1.456;2023-05-07T02:43:26;9.73;;;3.07;;
15655;SDS011;7928;43.614;1.456;2023-05-07T02:46:00;9.30;;;2.87;;
15655;SDS011;7928;43.614;1.456;2023-05-07T02:48:27;13.50;;;3.63;;
15655;SDS011;7928;43.614;1.456;2023-05-07T02:50:56;8.23;;;3.00;;
15655;SDS011;7928;43.614;1.456;2023-05-07T02:53:23;6.33;;;3.03;;
15655;SDS011;7928;43.614;1.456;2023-05-07T02:55:51;9.53;;;3.60;;
15655;SDS011;7928;43.614;1.456;2023-05-07T02:58:18;6.67;;;2.73;;
15655;SDS011;7928;43.614;1.456;2023-05-07T03:00:45;9.93;;;3.47;;
15655;SDS011;7928;43.614;1.456;2023-05-07T03:03:13;7.00;;;2.97;;
15655;SDS011;7928;43.614;1.456;2023-05-07T03:05:40;8.13;;;2.83;;
15655;SDS011;7928;43.614;1.456;2023-05-07T03:08:08;13.43;;;3.60;;
15655;SDS011;7928;43.614;1.456;2023-05-07T03:10:36;7.63;;;2.80;;
15655;SDS011;7928;43.614;1.456;2023-05-07T03:13:03;6.47;;;2.70;;
15655;SDS011;7928;43.614;1.456;2023-05-07T03:15:30;9.07;;;2.40;;
15655;SDS011;7928;43.614;1.456;2023-05-07T03:17:57;5.97;;;2.53;;
15655;SDS011;7928;43.614;1.456;2023-05-07T03:20:24;17.87;;;8.60;;
15655;SDS011;7928;43.614;1.456;2023-05-07T03:22:51;14.83;;;8.97;;
15655;SDS011;7928;43.614;1.456;2023-05-07T03:25:20;11.37;;;3.83;;
15655;SDS011;7928;43.614;1.456;2023-05-07T03:27:47;8.50;;;3.37;;
15655;SDS011;7928;43.614;1.456;2023-05-07T03:30:14;20.57;;;12.97;;
15655;SDS011;7928;43.614;1.456;2023-05-07T03:32:41;45.00;;;30.07;;
15655;SDS011;7928;43.614;1.456;2023-05-07T03:35:08;38.47;;;28.23;;
15655;SDS011;7928;43.614;1.456;2023-05-07T03:37:35;17.33;;;10.30;;
15655;SDS011;7928;43.614;1.456;2023-05-07T03:40:02;10.30;;;4.73;;
15655;SDS011;7928;43.614;1.456;2023-05-07T03:42:31;11.23;;;4.30;;
15655;SDS011;7928;43.614;1.456;2023-05-07T03:44:58;6.93;;;3.27;;
15655;SDS011;7928;43.614;1.456;2023-05-07T03:47:25;8.73;;;2.90;;
15655;SDS011;7928;43.614;1.456;2023-05-07T03:49:52;11.93;;;3.30;;
15655;SDS011;7928;43.614;1.456;2023-05-07T03:52:20;12.80;;;4.33;;
15655;SDS011;7928;43.614;1.456;2023-05-07T03:54:50;9.17;;;2.90;;
15655;SDS011;7928;43.614;1.456;2023-05-07T03:57:18;10.60;;;3.50;;
15655;SDS011;7928;43.614;1.456;2023-05-07T03:59:46;8.23;;;2.60;;
15655;SDS011;7928;43.614;1.456;2023-05-07T04:02:13;11.63;;;3.17;;
15655;SDS011;7928;43.614;1.456;2023-05-07T04:04:40;8.70;;;2.93;;
15655;SDS011;7928;43.614;1.456;2023-05-07T04:07:07;9.03;;;2.87;;
15655;SDS011;7928;43.614;1.456;2023-05-07T04:09:35;9.30;;;3.20;;
15655;SDS011;7928;43.614;1.456;2023-05-07T04:12:02;10.67;;;3.10;;
15655;SDS011;7928;43.614;1.456;2023-05-07T04:14:29;9.13;;;3.43;;
15655;SDS011;7928;43.614;1.456;2023-05-07T04:16:58;11.30;;;3.07;;
15655;SDS011;7928;43.614;1.456;2023-05-07T04:19:25;7.03;;;3.27;;
15655;SDS011;7928;43.614;1.456;2023-05-07T04:21:52;8.17;;;2.57;;
15655;SDS011;7928;43.614;1.456;2023-05-07T04:24:19;7.87;;;2.90;;
15655;SDS011;7928;43.614;1.456;2023-05-07T04:26:46;12.73;;;3.10;;
15655;SDS011;7928;43.614;1.456;2023-05-07T04:29:13;8.53;;;2.60;;
15655;SDS011;7928;43.614;1.456;2023-05-07T04:31:40;8.50;;;2.97;;
15655;SDS011;7928;43.614;1.456;2023-05-07T04:34:10;10.70;;;2.80;;
15655;SDS011;7928;43.614;1.456;2023-05-07T04:36:38;8.77;;;2.90;;
15655;SDS011;7928;43.614;1.456;2023-05-07T04:39:05;9.00;;;3.30;;
15655;SDS011;7928;43.614;1.456;2023-05-07T04:41:32;8.70;;;2.67;;
15655;SDS011;7928;43.614;1.456;2023-05-07T04:43:59;7.40;;;3.60;;
15655;SDS011;7928;43.614;1.456;2023-05-07T04:46:26;9.03;;;2.93;;
15655;SDS011;7928;43.614;1.456;2023-05-07T04:48:53;10.17;;;3.20;;
15655;SDS011;7928;43.614;1.456;2023-05-07T04:51:22;6.17;;;2.33;;
15655;SDS011;7928;43.614;1.456;2023-05-07T04:53:49;7.83;;;2.80;;
15655;SDS011;7928;43.614;1.456;2023-05-07T04:56:16;8.27;;;2.97;;
15655;SDS011;7928;43.614;1.456;2023-05-07T04:58:42;10.27;;;2.53;;
15655;SDS011;7928;43.614;1.456;2023-05-07T05:01:09;10.20;;;3.00;;
15655;SDS011;7928;43.614;1.456;2023-05-07T05:03:36;8.47;;;2.87;;
15655;SDS011;7928;43.614;1.456;2023-05-07T05:06:04;9.30;;;3.00;;
15655;SDS011;7928;43.614;1.456;2023-05-07T05:08:33;7.13;;;3.07;;
15655;SDS011;7928;43.614;1.456;2023-05-07T05:11:00;8.40;;;2.83;;
15655;SDS011;7928;43.614;1.456;2023-05-07T05:13:27;7.67;;;2.67;;
15655;SDS011;7928;43.614;1.456;2023-05-07T05:15:55;8.00;;;3.00;;
15655;SDS011;7928;43.614;1.456;2023-05-07T05:18:22;11.27;;;2.77;;
15655;SDS011;7928;43.614;1.456;2023-05-07T05:20:49;16.13;;;3.67;;
15655;SDS011;7928;43.614;1.456;2023-05-07T05:23:18;8.43;;;2.50;;
15655;SDS011;7928;43.614;1.456;2023-05-07T05:25:46;7.63;;;2.70;;
15655;SDS011;7928;43.614;1.456;2023-05-07T05:28:13;9.27;;;3.30;;
15655;SDS011;7928;43.614;1.456;2023-05-07T05:30:40;9.03;;;2.90;;
15655;SDS011;7928;43.614;1.456;2023-05-07T05:33:07;10.63;;;3.10;;
15655;SDS011;7928;43.614;1.456;2023-05-07T05:35:34;11.60;;;3.03;;
15655;SDS011;7928;43.614;1.456;2023-05-07T05:38:01;9.37;;;3.17;;
15655;SDS011;7928;43.614;1.456;2023-05-07T05:40:28;10.40;;;3.53;;
15655;SDS011;7928;43.614;1.456;2023-05-07T05:42:57;11.43;;;3.53;;
15655;SDS011;7928;43.614;1.456;2023-05-07T05:45:25;11.23;;;3.87;;
15655;SDS011;7928;43.614;1.456;2023-05-07T05:47:52;11.57;;;3.27;;
15655;SDS011;7928;43.614;1.456;2023-05-07T05:50:19;8.17;;;2.80;;
15655;SDS011;7928;43.614;1.456;2023-05-07T05:52:46;8.13;;;3.03;;
15655;SDS011;7928;43.614;1.456;2023-05-07T05:55:13;10.33;;;3.23;;
15655;SDS011;7928;43.614;1.456;2023-05-07T05:57:40;6.20;;;2.97;;
15655;SDS011;7928;43.614;1.456;2023-05-07T06:00:09;12.43;;;4.13;;
15655;SDS011;7928;43.614;1.456;2023-05-07T06:02:37;9.80;;;3.47;;
15655;SDS011;7928;43.614;1.456;2023-05-07T06:05:04;11.10;;;3.50;;
15655;SDS011;7928;43.614;1.456;2023-05-07T06:07:31;8.83;;;3.43;;
15655;SDS011;7928;43.614;1.456;2023-05-07T06:09:59;9.53;;;3.40;;
15655;SDS011;7928;43.614;1.456;2023-05-07T06:12:26;11.17;;;2.97;;
15655;SDS011;7928;43.614;1.456;2023-05-07T06:14:53;9.97;;;3.17;;
15655;SDS011;7928;43.614;1.456;2023-05-07T06:17:22;9.23;;;2.80;;
15655;SDS011;7928;43.614;1.456;2023-05-07T06:19:49;7.87;;;3.10;;
15655;SDS011;7928;43.614;1.456;2023-05-07T06:22:15;9.43;;;3.43;;
15655;SDS011;7928;43.614;1.456;2023-05-07T06:24:42;10.13;;;3.43;;
15655;SDS011;7928;43.614;1.456;2023-05-07T06:27:09;10.07;;;3.40;;
15655;SDS011;7928;43.614;1.456;2023-05-07T06:29:36;9.63;;;3.13;;
15655;SDS011;7928;43.614;1.456;2023-05-07T06:32:06;7.10;;;3.03;;
15655;SDS011;7928;43.614;1.456;2023-05-07T06:34:35;9.83;;;3.07;;
15655;SDS011;7928;43.614;1.456;2023-05-07T06:37:02;9.20;;;3.03;;
15655;SDS011;7928;43.614;1.456;2023-05-07T06:39:29;11.80;;;3.63;;
15655;SDS011;7928;43.614;1.456;2023-05-07T06:41:56;7.90;;;2.67;;
15655;SDS011;7928;43.614;1.456;2023-05-07T06:44:24;10.67;;;3.40;;
15655;SDS011;7928;43.614;1.456;2023-05-07T06:46:51;9.47;;;3.00;;
15655;SDS011;7928;43.614;1.456;2023-05-07T06:49:18;8.27;;;3.23;;
15655;SDS011;7928;43.614;1.456;2023-05-07T06:51:46;5.87;;;2.77;;
15655;SDS011;7928;43.614;1.456;2023-05-07T06:54:13;8.97;;;3.60;;
15655;SDS011;7928;43.614;1.456;2023-05-07T06:56:40;9.47;;;3.27;;
15655;SDS011;7928;43.614;1.456;2023-05-07T06:59:07;10.17;;;3.70;;
15655;SDS011;7928;43.614;1.456;2023-05-07T07:01:34;11.87;;;3.27;;
15655;SDS011;7928;43.614;1.456;2023-05-07T07:04:01;9.90;;;3.07;;
15655;SDS011;7928;43.614;1.456;2023-05-07T07:06:28;9.43;;;3.17;;
15655;SDS011;7928;43.614;1.456;2023-05-07T07:08:58;8.67;;;2.53;;
15655;SDS011;7928;43.614;1.456;2023-05-07T07:11:25;7.60;;;3.10;;
15655;SDS011;7928;43.614;1.456;2023-05-07T07:13:52;9.90;;;3.10;;
15655;SDS011;7928;43.614;1.456;2023-05-07T07:16:19;11.77;;;2.93;;
15655;SDS011;7928;43.614;1.456;2023-05-07T07:18:46;9.53;;;3.03;;
15655;SDS011;7928;43.614;1.456;2023-05-07T07:21:13;9.93;;;3.13;;
15655;SDS011;7928;43.614;1.456;2023-05-07T07:23:40;9.83;;;3.40;;
15655;SDS011;7928;43.614;1.456;2023-05-07T07:26:09;11.10;;;3.60;;
15655;SDS011;7928;43.614;1.456;2023-05-07T07:28:41;12.60;;;3.40;;
15655;SDS011;7928;43.614;1.456;2023-05-07T07:31:09;9.20;;;3.00;;
15655;SDS011;7928;43.614;1.456;2023-05-07T07:33:36;8.63;;;3.10;;
15655;SDS011;7928;43.614;1.456;2023-05-07T07:36:03;14.37;;;4.03;;
15655;SDS011;7928;43.614;1.456;2023-05-07T07:38:31;8.00;;;3.23;;
15655;SDS011;7928;43.614;1.456;2023-05-07T07:40:59;9.83;;;2.90;;
15655;SDS011;7928;43.614;1.456;2023-05-07T07:43:28;10.70;;;3.23;;
15655;SDS011;7928;43.614;1.456;2023-05-07T07:45:55;11.63;;;3.80;;
15655;SDS011;7928;43.614;1.456;2023-05-07T07:48:22;8.53;;;2.80;;
15655;SDS011;7928;43.614;1.456;2023-05-07T07:50:49;10.40;;;3.00;;
15655;SDS011;7928;43.614;1.456;2023-05-07T07:53:16;8.63;;;2.97;;
15655;SDS011;7928;43.614;1.456;2023-05-07T07:55:43;8.23;;;2.90;;
15655;SDS011;7928;43.614;1.456;2023-05-07T07:58:10;9.20;;;2.97;;
15655;SDS011;7928;43.614;1.456;2023-05-07T08:00:39;9.97;;;3.33;;
15655;SDS011;7928;43.614;1.456;2023-05-07T08:03:06;8.00;;;3.27;;
15655;SDS011;7928;43.614;1.456;2023-05-07T08:05:35;9.73;;;2.97;;
15655;SDS011;7928;43.614;1.456;2023-05-07T08:08:03;10.30;;;3.43;;
15655;SDS011;7928;43.614;1.456;2023-05-07T08:10:31;10.43;;;3.57;;
15655;SDS011;7928;43.614;1.456;2023-05-07T08:12:59;8.77;;;2.73;;
15655;SDS011;7928;43.614;1.456;2023-05-07T08:15:28;8.10;;;2.73;;
15655;SDS011;7928;43.614;1.456;2023-05-07T08:17:57;12.30;;;3.10;;
15655;SDS011;7928;43.614;1.456;2023-05-07T08:20:25;10.20;;;3.13;;
15655;SDS011;7928;43.614;1.456;2023-05-07T08:22:52;12.03;;;2.87;;
15655;SDS011;7928;43.614;1.456;2023-05-07T08:25:19;8.37;;;2.80;;
15655;SDS011;7928;43.614;1.456;2023-05-07T08:27:46;8.30;;;2.87;;
15655;SDS011;7928;43.614;1.456;2023-05-07T08:30:13;8.57;;;3.23;;
15655;SDS011;7928;43.614;1.456;2023-05-07T08:32:41;9.33;;;3.47;;
15655;SDS011;7928;43.614;1.456;2023-05-07T08:35:09;7.80;;;2.67;;
15655;SDS011;7928;43.614;1.456;2023-05-07T08:37:36;10.43;;;3.43;;
15655;SDS011;7928;43.614;1.456;2023-05-07T08:40:04;9.23;;;2.93;;
15655;SDS011;7928;43.614;1.456;2023-05-07T08:42:32;8.47;;;2.87;;
15655;SDS011;7928;43.614;1.456;2023-05-07T08:45:02;8.73;;;2.90;;
15655;SDS011;7928;43.614;1.456;2023-05-07T08:47:34;8.63;;;2.87;;
15655;SDS011;7928;43.614;1.456;2023-05-07T08:50:10;8.50;;;2.97;;
15655;SDS011;7928;43.614;1.456;2023-05-07T08:52:37;7.33;;;2.87;;
15655;SDS011;7928;43.614;1.456;2023-05-07T08:55:05;9.77;;;2.73;;
15655;SDS011;7928;43.614;1.456;2023-05-07T08:57:34;11.80;;;3.33;;
15655;SDS011;7928;43.614;1.456;2023-05-07T09:00:01;8.97;;;3.93;;
15655;SDS011;7928;43.614;1.456;2023-05-07T09:02:29;8.17;;;3.30;;
15655;SDS011;7928;43.614;1.456;2023-05-07T09:04:56;10.53;;;3.30;;
15655;SDS011;7928;43.614;1.456;2023-05-07T09:07:24;9.97;;;3.50;;
15655;SDS011;7928;43.614;1.456;2023-05-07T09:09:51;9.43;;;3.07;;
15655;SDS011;7928;43.614;1.456;2023-05-07T09:12:20;9.73;;;2.87;;
15655;SDS011;7928;43.614;1.456;2023-05-07T09:14:48;9.60;;;3.03;;
15655;SDS011;7928;43.614;1.456;2023-05-07T09:17:15;6.33;;;2.37;;
15655;SDS011;7928;43.614;1.456;2023-05-07T09:19:43;7.27;;;2.60;;
15655;SDS011;7928;43.614;1.456;2023-05-07T09:22:10;9.03;;;2.87;;
15655;SDS011;7928;43.614;1.456;2023-05-07T09:24:38;8.17;;;2.57;;
15655;SDS011;7928;43.614;1.456;2023-05-07T09:27:06;8.40;;;2.83;;
15655;SDS011;7928;43.614;1.456;2023-05-07T09:29:35;11.07;;;4.30;;
15655;SDS011;7928;43.614;1.456;2023-05-07T09:32:02;7.57;;;2.97;;
15655;SDS011;7928;43.614;1.456;2023-05-07T09:34:29;9.63;;;2.83;;
15655;SDS011;7928;43.614;1.456;2023-05-07T09:36:57;8.03;;;3.03;;
15655;SDS011;7928;43.614;1.456;2023-05-07T09:39:25;12.83;;;3.57;;
15655;SDS011;7928;43.614;1.456;2023-05-07T09:41:53;6.83;;;2.50;;
15655;SDS011;7928;43.614;1.456;2023-05-07T09:44:21;8.33;;;3.13;;
15655;SDS011;7928;43.614;1.456;2023-05-07T09:46:51;7.80;;;2.80;;
15655;SDS011;7928;43.614;1.456;2023-05-07T09:49:20;6.80;;;2.73;;
15655;SDS011;7928;43.614;1.456;2023-05-07T09:51:49;10.30;;;2.73;;
15655;SDS011;7928;43.614;1.456;2023-05-07T09:54:17;9.70;;;3.80;;
15655;SDS011;7928;43.614;1.456;2023-05-07T09:56:44;9.30;;;3.00;;
15655;SDS011;7928;43.614;1.456;2023-05-07T09:59:14;11.00;;;3.00;;
15655;SDS011;7928;43.614;1.456;2023-05-07T10:01:43;11.97;;;2.93;;
15655;SDS011;7928;43.614;1.456;2023-05-07T10:04:10;9.93;;;3.17;;
15655;SDS011;7928;43.614;1.456;2023-05-07T10:06:38;8.77;;;3.13;;
15655;SDS011;7928;43.614;1.456;2023-05-07T10:09:06;11.03;;;3.33;;
15655;SDS011;7928;43.614;1.456;2023-05-07T10:11:35;8.77;;;3.03;;
15655;SDS011;7928;43.614;1.456;2023-05-07T10:14:04;6.87;;;2.87;;
15655;SDS011;7928;43.614;1.456;2023-05-07T10:16:34;11.03;;;2.73;;
15655;SDS011;7928;43.614;1.456;2023-05-07T10:19:02;10.77;;;3.20;;
15655;SDS011;7928;43.614;1.456;2023-05-07T10:21:29;10.57;;;3.07;;
15655;SDS011;7928;43.614;1.456;2023-05-07T10:23:58;9.57;;;3.17;;
15655;SDS011;7928;43.614;1.456;2023-05-07T10:26:27;10.10;;;4.33;;
15655;SDS011;7928;43.614;1.456;2023-05-07T10:28:57;7.73;;;2.90;;
15655;SDS011;7928;43.614;1.456;2023-05-07T10:31:41;6.70;;;2.50;;
15655;SDS011;7928;43.614;1.456;2023-05-07T10:34:21;7.53;;;2.90;;
15655;SDS011;7928;43.614;1.456;2023-05-07T10:36:50;8.20;;;3.10;;
15655;SDS011;7928;43.614;1.456;2023-05-07T10:39:19;9.97;;;2.93;;
15655;SDS011;7928;43.614;1.456;2023-05-07T10:41:46;10.57;;;3.23;;
15655;SDS011;7928;43.614;1.456;2023-05-07T10:44:24;7.20;;;2.87;;
15655;SDS011;7928;43.614;1.456;2023-05-07T10:47:05;10.87;;;3.77;;
15655;SDS011;7928;43.614;1.456;2023-05-07T10:49:34;8.67;;;3.00;;
15655;SDS011;7928;43.614;1.456;2023-05-07T10:52:10;10.37;;;2.83;;
15655;SDS011;7928;43.614;1.456;2023-05-07T10:54:38;6.33;;;2.77;;
15655;SDS011;7928;43.614;1.456;2023-05-07T11:00:01;10.00;;;3.47;;
15655;SDS011;7928;43.614;1.456;2023-05-07T11:05:35;5.27;;;2.57;;
15655;SDS011;7928;43.614;1.456;2023-05-07T11:08:02;7.43;;;2.67;;
15655;SDS011;7928;43.614;1.456;2023-05-07T11:13:16;6.67;;;2.73;;
15655;SDS011;7928;43.614;1.456;2023-05-07T11:15:44;8.00;;;2.75;;
15655;SDS011;7928;43.614;1.456;2023-05-07T11:18:14;8.25;;;2.47;;
15655;SDS011;7928;43.614;1.456;2023-05-07T11:20:45;9.40;;;3.10;;
15655;SDS011;7928;43.614;1.456;2023-05-07T11:26:27;9.07;;;3.10;;
15655;SDS011;7928;43.614;1.456;2023-05-07T11:28:56;6.82;;;2.30;;
15655;SDS011;7928;43.614;1.456;2023-05-07T11:31:26;8.65;;;2.83;;
15655;SDS011;7928;43.614;1.456;2023-05-07T11:33:56;11.65;;;3.30;;
15655;SDS011;7928;43.614;1.456;2023-05-07T11:36:23;8.25;;;2.78;;
15655;SDS011;7928;43.614;1.456;2023-05-07T11:38:52;7.00;;;2.60;;
15655;SDS011;7928;43.614;1.456;2023-05-07T11:41:19;7.22;;;2.40;;
15655;SDS011;7928;43.614;1.456;2023-05-07T11:43:53;7.30;;;3.30;;
15655;SDS011;7928;43.614;1.456;2023-05-07T11:46:22;9.93;;;3.05;;
15655;SDS011;7928;43.614;1.456;2023-05-07T11:48:49;7.80;;;3.05;;
15655;SDS011;7928;43.614;1.456;2023-05-07T11:51:21;6.95;;;2.42;;
15655;SDS011;7928;43.614;1.456;2023-05-07T11:53:48;6.38;;;2.50;;
15655;SDS011;7928;43.614;1.456;2023-05-07T11:56:16;7.70;;;2.90;;
15655;SDS011;7928;43.614;1.456;2023-05-07T11:58:44;4.40;;;2.05;;
15655;SDS011;7928;43.614;1.456;2023-05-07T12:01:12;8.18;;;2.58;;
15655;SDS011;7928;43.614;1.456;2023-05-07T12:03:41;8.35;;;2.35;;
15655;SDS011;7928;43.614;1.456;2023-05-07T12:06:10;7.63;;;2.38;;
15655;SDS011;7928;43.614;1.456;2023-05-07T12:08:39;5.53;;;2.33;;
15655;SDS011;7928;43.614;1.456;2023-05-07T12:11:08;4.78;;;1.90;;
15655;SDS011;7928;43.614;1.456;2023-05-07T12:13:36;5.90;;;2.40;;
15655;SDS011;7928;43.614;1.456;2023-05-07T12:16:04;8.07;;;2.40;;
15655;SDS011;7928;43.614;1.456;2023-05-07T12:18:32;6.55;;;2.38;;
15655;SDS011;7928;43.614;1.456;2023-05-07T12:21:03;4.13;;;1.83;;
15655;SDS011;7928;43.614;1.456;2023-05-07T12:23:31;5.30;;;2.25;;
15655;SDS011;7928;43.614;1.456;2023-05-07T12:26:00;5.55;;;2.13;;
15655;SDS011;7928;43.614;1.456;2023-05-07T12:28:28;5.53;;;1.98;;
15655;SDS011;7928;43.614;1.456;2023-05-07T12:30:55;6.03;;;2.20;;
15655;SDS011;7928;43.614;1.456;2023-05-07T12:33:24;5.30;;;2.00;;
15655;SDS011;7928;43.614;1.456;2023-05-07T12:35:54;5.40;;;2.13;;
15655;SDS011;7928;43.614;1.456;2023-05-07T12:38:21;5.85;;;2.30;;
15655;SDS011;7928;43.614;1.456;2023-05-07T12:40:49;6.43;;;2.50;;
15655;SDS011;7928;43.614;1.456;2023-05-07T12:43:19;6.15;;;2.42;;
15655;SDS011;7928;43.614;1.456;2023-05-07T12:45:48;6.55;;;1.92;;
15655;SDS011;7928;43.614;1.456;2023-05-07T12:48:16;6.90;;;2.35;;
15655;SDS011;7928;43.614;1.456;2023-05-07T12:50:43;5.75;;;2.60;;
15655;SDS011;7928;43.614;1.456;2023-05-07T12:53:11;4.78;;;2.22;;
15655;SDS011;7928;43.614;1.456;2023-05-07T12:55:41;4.38;;;1.83;;
15655;SDS011;7928;43.614;1.456;2023-05-07T12:58:14;4.47;;;1.98;;
15655;SDS011;7928;43.614;1.456;2023-05-07T13:00:47;4.57;;;2.03;;
15655;SDS011;7928;43.614;1.456;2023-05-07T13:03:22;4.93;;;2.08;;
15655;SDS011;7928;43.614;1.456;2023-05-07T13:05:50;5.60;;;2.00;;
15655;SDS011;7928;43.614;1.456;2023-05-07T13:08:23;5.07;;;2.00;;
15655;SDS011;7928;43.614;1.456;2023-05-07T13:10:51;4.43;;;1.75;;
15655;SDS011;7928;43.614;1.456;2023-05-07T13:13:20;7.10;;;2.00;;
15655;SDS011;7928;43.614;1.456;2023-05-07T13:15:47;4.10;;;2.00;;
15655;SDS011;7928;43.614;1.456;2023-05-07T13:18:15;4.50;;;1.80;;
15655;SDS011;7928;43.614;1.456;2023-05-07T13:20:42;4.85;;;1.92;;
15655;SDS011;7928;43.614;1.456;2023-05-07T13:23:09;5.07;;;2.22;;
15655;SDS011;7928;43.614;1.456;2023-05-07T13:25:36;4.68;;;2.03;;
15655;SDS011;7928;43.614;1.456;2023-05-07T13:28:03;6.18;;;2.13;;
15655;SDS011;7928;43.614;1.456;2023-05-07T13:30:31;3.63;;;2.08;;
15655;SDS011;7928;43.614;1.456;2023-05-07T13:32:58;4.30;;;2.08;;
15655;SDS011;7928;43.614;1.456;2023-05-07T13:35:26;5.55;;;3.33;;
15655;SDS011;7928;43.614;1.456;2023-05-07T13:37:53;5.85;;;1.80;;
15655;SDS011;7928;43.614;1.456;2023-05-07T13:40:20;2.53;;;1.70;;
15655;SDS011;7928;43.614;1.456;2023-05-07T13:42:48;4.63;;;1.80;;
15655;SDS011;7928;43.614;1.456;2023-05-07T13:45:15;6.68;;;2.20;;
15655;SDS011;7928;43.614;1.456;2023-05-07T13:47:44;6.20;;;2.03;;
15655;SDS011;7928;43.614;1.456;2023-05-07T13:50:11;4.75;;;2.25;;
15655;SDS011;7928;43.614;1.456;2023-05-07T13:52:40;4.43;;;1.75;;
15655;SDS011;7928;43.614;1.456;2023-05-07T13:55:10;4.70;;;1.73;;
15655;SDS011;7928;43.614;1.456;2023-05-07T13:57:38;5.15;;;1.88;;
15655;SDS011;7928;43.614;1.456;2023-05-07T14:00:05;9.55;;;2.05;;
15655;SDS011;7928;43.614;1.456;2023-05-07T14:02:33;5.72;;;1.98;;
15655;SDS011;7928;43.614;1.456;2023-05-07T14:05:02;4.97;;;2.05;;
15655;SDS011;7928;43.614;1.456;2023-05-07T14:07:29;4.13;;;1.90;;
15655;SDS011;7928;43.614;1.456;2023-05-07T14:09:56;6.10;;;1.95;;
15655;SDS011;7928;43.614;1.456;2023-05-07T14:12:23;4.55;;;1.70;;
15655;SDS011;7928;43.614;1.456;2023-05-07T14:14:50;5.22;;;2.25;;
15655;SDS011;7928;43.614;1.456;2023-05-07T14:17:17;7.18;;;2.15;;
15655;SDS011;7928;43.614;1.456;2023-05-07T14:19:45;3.35;;;1.30;;
15655;SDS011;7928;43.614;1.456;2023-05-07T14:22:14;4.32;;;1.67;;
15655;SDS011;7928;43.614;1.456;2023-05-07T14:24:41;4.40;;;1.30;;
15655;SDS011;7928;43.614;1.456;2023-05-07T14:27:08;3.50;;;1.40;;
15655;SDS011;7928;43.614;1.456;2023-05-07T14:29:35;4.30;;;1.80;;
15655;SDS011;7928;43.614;1.456;2023-05-07T14:32:02;4.60;;;1.45;;
15655;SDS011;7928;43.614;1.456;2023-05-07T14:34:29;4.57;;;1.80;;
15655;SDS011;7928;43.614;1.456;2023-05-07T14:36:57;4.07;;;1.60;;
15655;SDS011;7928;43.614;1.456;2023-05-07T14:39:25;3.28;;;1.75;;
15655;SDS011;7928;43.614;1.456;2023-05-07T14:41:52;4.32;;;1.50;;
15655;SDS011;7928;43.614;1.456;2023-05-07T14:44:21;3.92;;;1.73;;
15655;SDS011;7928;43.614;1.456;2023-05-07T14:46:48;8.65;;;2.30;;
15655;SDS011;7928;43.614;1.456;2023-05-07T14:49:15;4.85;;;1.50;;
15655;SDS011;7928;43.614;1.456;2023-05-07T14:51:43;5.25;;;2.13;;
15655;SDS011;7928;43.614;1.456;2023-05-07T14:54:11;4.18;;;1.90;;
15655;SDS011;7928;43.614;1.456;2023-05-07T14:56:39;6.05;;;1.88;;
15655;SDS011;7928;43.614;1.456;2023-05-07T14:59:07;5.95;;;1.80;;
15655;SDS011;7928;43.614;1.456;2023-05-07T15:01:35;6.65;;;1.80;;
15655;SDS011;7928;43.614;1.456;2023-05-07T15:04:02;3.17;;;1.65;;
15655;SDS011;7928;43.614;1.456;2023-05-07T15:06:30;6.13;;;2.17;;
15655;SDS011;7928;43.614;1.456;2023-05-07T15:08:57;5.38;;;2.30;;
15655;SDS011;7928;43.614;1.456;2023-05-07T15:11:24;4.53;;;1.80;;
15655;SDS011;7928;43.614;1.456;2023-05-07T15:13:53;4.85;;;2.00;;